Time;durP1;ratioP1;P1;durP2;ratioP2;P2;SDS_P1;SDS_P2;PMS_P1;PMS_P2;Temp;Humidity;BMP_temperature;BMP_pressure;BME280_temperature;BME280_humidity;BME280_pressure;Samples;Min_cycle;Max_cycle;Signal;HPM_P1;HPM_P2
2022/12/13 00:03:43;;;;;;;11.60;5.53;;;-3.10;99.90;;;;;;8388312;28;20192;-80
2022/12/13 00:07:44;;;;;;;11.40;5.43;;;-3.10;99.90;;;;;;8386791;28;20185;-80
2022/12/13 00:11:46;;;;;;;11.90;5.70;;;-3.10;99.90;;;;;;8370357;28;20520;-80
2022/12/13 00:15:58;;;;;;;8.13;5.83;;;-3.20;99.90;;;;;;8374632;28;20205;-75
2022/12/13 00:19:59;;;;;;;7.73;5.07;;;-3.20;99.90;;;;;;8378114;28;20182;-76
2022/12/13 00:24:00;;;;;;;9.63;5.93;;;-3.30;99.90;;;;;;8373042;28;20170;-77
2022/12/13 00:28:02;;;;;;;9.43;6.03;;;-3.30;99.90;;;;;;8384733;28;20189;-76
2022/12/13 00:32:04;;;;;;;9.80;5.13;;;-3.40;99.90;;;;;;8365645;28;20186;-79
2022/12/13 00:36:09;;;;;;;12.43;6.00;;;-3.40;99.90;;;;;;8364926;28;20212;-76
2022/12/13 00:40:10;;;;;;;10.30;6.17;;;-3.50;99.90;;;;;;8366851;28;20182;-77
2022/12/13 00:44:12;;;;;;;9.03;5.93;;;-3.70;99.90;;;;;;8371590;28;20184;-78
2022/12/13 00:48:13;;;;;;;10.73;6.10;;;-3.80;99.90;;;;;;8367415;28;20227;-74
2022/12/13 00:52:14;;;;;;;10.27;5.77;;;-3.90;99.90;;;;;;8371614;28;20185;-74
2022/12/13 00:56:20;;;;;;;10.40;6.07;;;-4.00;99.90;;;;;;8374533;28;20197;-75
2022/12/13 01:00:21;;;;;;;12.10;6.40;;;-4.00;99.90;;;;;;8382762;28;20259;-74
2022/12/13 01:04:21;;;;;;;9.50;5.87;;;-4.10;99.90;;;;;;8375371;28;20177;-82
2022/12/13 01:08:22;;;;;;;9.57;5.73;;;-4.10;99.90;;;;;;8369275;28;20294;-76
2022/12/13 01:12:23;;;;;;;8.63;5.47;;;-4.20;99.90;;;;;;8374139;28;20219;-79
2022/12/13 01:16:24;;;;;;;13.70;7.30;;;-4.40;99.90;;;;;;8370363;28;20235;-79
2022/12/13 01:20:25;;;;;;;9.43;5.73;;;-4.40;99.90;;;;;;8377610;28;20189;-76
2022/12/13 01:24:26;;;;;;;9.13;6.00;;;-4.40;99.90;;;;;;8372641;28;20178;-76
2022/12/13 01:28:27;;;;;;;11.37;5.83;;;-4.50;99.90;;;;;;8375254;28;20188;-79
2022/12/13 01:32:28;;;;;;;9.17;4.93;;;-4.60;99.90;;;;;;8370327;28;20188;-79
2022/12/13 01:36:29;;;;;;;9.27;5.97;;;-4.60;99.90;;;;;;8367516;28;20248;-81
2022/12/13 01:40:30;;;;;;;9.77;5.77;;;-4.50;99.90;;;;;;8385863;28;20178;-76
2022/12/13 01:45:01;;;;;;;10.57;5.77;;;-4.30;99.90;;;;;;8368561;28;20283;-76
2022/12/13 01:49:14;;;;;;;9.30;6.43;;;-4.10;99.90;;;;;;8375077;28;20184;-76
2022/12/13 01:53:20;;;;;;;13.37;6.80;;;-4.00;99.90;;;;;;8368552;28;20183;-80
2022/12/13 01:57:22;;;;;;;12.93;7.53;;;-3.90;99.90;;;;;;8386203;28;20201;-75
2022/12/13 02:01:24;;;;;;;11.97;7.40;;;-3.80;99.90;;;;;;8364000;28;20186;-79
2022/12/13 02:05:35;;;;;;;14.20;7.93;;;-3.70;99.90;;;;;;8365434;28;20185;-77
2022/12/13 02:09:37;;;;;;;11.47;7.60;;;-3.70;99.90;;;;;;8364103;28;20238;-75
2022/12/13 02:13:38;;;;;;;11.67;7.23;;;-3.60;99.90;;;;;;8381288;28;20510;-75
2022/12/13 02:18:09;;;;;;;14.90;7.93;;;-3.50;99.90;;;;;;8363509;28;20198;-80
2022/12/13 02:22:35;;;;;;;12.70;8.07;;;-3.50;99.90;;;;;;8369009;28;20184;-79
2022/12/13 02:26:56;;;;;;;14.07;7.97;;;-3.40;99.90;;;;;;8361605;28;20192;-75
2022/12/13 02:31:14;;;;;;;13.97;8.40;;;-3.30;99.90;;;;;;8369674;28;20209;-79
2022/12/13 02:35:47;;;;;;;14.03;7.43;;;-3.30;99.90;;;;;;8370435;28;20231;-76
2022/12/13 02:39:59;;;;;;;12.40;7.50;;;-3.20;99.90;;;;;;8363403;28;20185;-75
2022/12/13 02:44:38;;;;;;;14.30;7.70;;;-3.20;99.90;;;;;;8365521;28;20266;-75
2022/12/13 02:48:42;;;;;;;16.23;7.40;;;-3.20;99.90;;;;;;8371221;28;20202;-76
2022/12/13 02:52:45;;;;;;;12.47;7.27;;;-3.10;99.90;;;;;;8365374;28;20192;-81
2022/12/13 02:56:57;;;;;;;13.60;7.47;;;-3.10;99.90;;;;;;8365674;28;20256;-79
2022/12/13 03:01:13;;;;;;;13.20;7.67;;;-3.00;99.90;;;;;;8357775;28;20183;-81
2022/12/13 03:10:08;;;;;;;10.03;6.17;;;-3.10;99.90;;;;;;8363906;28;20248;-75
2022/12/13 03:14:10;;;;;;;11.20;6.57;;;-3.00;99.90;;;;;;8372201;28;20193;-76
2022/12/13 03:18:19;;;;;;;9.30;6.07;;;-3.00;99.90;;;;;;8368259;28;20272;-80
2022/12/13 03:22:20;;;;;;;9.90;5.70;;;-3.10;99.90;;;;;;8366028;28;20185;-78
2022/12/13 03:26:24;;;;;;;8.60;5.43;;;-3.10;99.90;;;;;;8377210;28;20187;-78
2022/12/13 03:30:24;;;;;;;8.03;5.53;;;-3.10;99.90;;;;;;8369359;28;20236;-76
2022/12/13 03:34:25;;;;;;;8.57;5.17;;;-3.10;99.90;;;;;;8381111;28;20205;-80
2022/12/13 03:38:26;;;;;;;8.77;6.27;;;-3.10;99.90;;;;;;8369746;28;20242;-78
2022/12/13 03:42:28;;;;;;;9.80;5.90;;;-3.10;99.90;;;;;;8385222;28;20181;-76
2022/12/13 03:46:29;;;;;;;11.40;6.50;;;-3.10;99.90;;;;;;8369289;28;20185;-76
2022/12/13 03:50:29;;;;;;;8.93;4.93;;;-3.10;99.90;;;;;;8372347;28;20181;-79
2022/12/13 03:54:31;;;;;;;7.03;4.93;;;-3.10;99.90;;;;;;8366657;28;20197;-75
2022/12/13 03:58:34;;;;;;;8.77;5.53;;;-3.10;99.90;;;;;;8369193;28;20202;-78
2022/12/13 04:02:34;;;;;;;8.33;5.10;;;-3.10;99.90;;;;;;8369985;28;20185;-79
2022/12/13 04:06:35;;;;;;;8.17;5.27;;;-3.10;99.90;;;;;;8367828;28;20178;-75
2022/12/13 04:10:36;;;;;;;9.70;5.40;;;-3.10;99.90;;;;;;8370436;28;20250;-81
2022/12/13 04:14:37;;;;;;;9.70;5.87;;;-3.10;99.90;;;;;;8367135;28;20184;-80
2022/12/13 04:18:38;;;;;;;8.53;5.30;;;-3.10;99.90;;;;;;8365620;28;20175;-79
2022/12/13 04:22:39;;;;;;;10.67;6.27;;;-3.10;99.90;;;;;;8366209;28;20174;-78
2022/12/13 04:26:39;;;;;;;11.00;6.37;;;-3.10;99.90;;;;;;8371431;28;20411;-76
2022/12/13 04:30:40;;;;;;;10.13;6.03;;;-3.10;99.90;;;;;;8369725;28;20203;-79
2022/12/13 04:34:41;;;;;;;12.63;7.33;;;-3.10;99.90;;;;;;8368979;28;20285;-79
2022/12/13 04:38:42;;;;;;;11.03;6.43;;;-3.20;99.90;;;;;;8367620;28;20316;-75
2022/12/13 04:42:43;;;;;;;11.67;7.17;;;-3.10;99.90;;;;;;8370888;28;20245;-77
2022/12/13 04:46:43;;;;;;;9.73;5.97;;;-3.10;99.90;;;;;;8370199;28;20193;-81
2022/12/13 04:50:44;;;;;;;10.27;5.60;;;-3.00;99.90;;;;;;8366888;28;20390;-81
2022/12/13 04:54:45;;;;;;;11.23;6.50;;;-3.00;99.90;;;;;;8369389;28;20276;-80
2022/12/13 04:58:46;;;;;;;10.73;6.63;;;-3.00;99.90;;;;;;8380548;28;20201;-78
2022/12/13 05:02:47;;;;;;;9.73;6.07;;;-2.90;99.90;;;;;;8370109;28;20238;-76
2022/12/13 05:06:47;;;;;;;12.47;7.80;;;-2.90;99.90;;;;;;8373853;28;20181;-75
2022/12/13 05:10:48;;;;;;;11.63;7.10;;;-2.90;99.90;;;;;;8368142;28;20303;-75
2022/12/13 05:14:50;;;;;;;12.80;7.30;;;-3.00;99.90;;;;;;8374042;28;20208;-77
2022/12/13 05:18:51;;;;;;;17.23;8.10;;;-3.00;99.90;;;;;;8368472;28;20179;-75
2022/12/13 05:22:56;;;;;;;14.93;7.77;;;-2.90;99.90;;;;;;8366566;28;20181;-80
2022/12/13 05:26:57;;;;;;;16.47;7.77;;;-2.90;99.90;;;;;;8369399;28;20273;-74
2022/12/13 05:31:06;;;;;;;10.60;7.20;;;-2.90;99.90;;;;;;8370315;28;20175;-75
2022/12/13 05:35:07;;;;;;;12.50;7.60;;;-2.90;99.90;;;;;;8366693;28;20214;-74
2022/12/13 05:39:08;;;;;;;14.13;7.77;;;-2.90;99.90;;;;;;8367112;28;20273;-80
2022/12/13 05:43:13;;;;;;;12.27;7.03;;;-2.90;99.90;;;;;;8368730;28;20183;-78
2022/12/13 05:47:13;;;;;;;15.27;8.03;;;-2.80;99.90;;;;;;8366289;28;20190;-79
2022/12/13 05:51:14;;;;;;;14.13;7.63;;;-2.90;99.90;;;;;;8363234;28;20195;-78
2022/12/13 05:55:15;;;;;;;13.47;8.03;;;-2.90;99.90;;;;;;8372239;28;20338;-80
2022/12/13 05:59:16;;;;;;;13.10;7.53;;;-2.90;99.90;;;;;;8365369;28;20203;-76
2022/12/13 06:03:17;;;;;;;12.67;7.37;;;-3.00;99.90;;;;;;8368347;28;20210;-80
2022/12/13 06:07:18;;;;;;;16.57;7.97;;;-2.90;99.90;;;;;;8368886;28;20206;-79
2022/12/13 06:11:19;;;;;;;13.93;7.67;;;-2.90;99.90;;;;;;8364941;28;20188;-76
2022/12/13 06:15:20;;;;;;;13.77;8.07;;;-2.90;99.90;;;;;;8366633;28;20222;-76
2022/12/13 06:19:22;;;;;;;15.33;8.53;;;-2.90;99.90;;;;;;8361579;28;20279;-80
2022/12/13 06:23:23;;;;;;;12.50;7.93;;;-2.90;99.90;;;;;;8365279;28;20188;-79
2022/12/13 06:27:23;;;;;;;13.00;7.20;;;-2.90;99.90;;;;;;8361826;28;20191;-80
2022/12/13 06:31:24;;;;;;;11.20;6.77;;;-2.90;99.90;;;;;;8373646;28;20217;-76
2022/12/13 06:35:25;;;;;;;12.57;7.13;;;-3.00;99.90;;;;;;8370166;28;20219;-75
2022/12/13 06:39:29;;;;;;;11.80;7.10;;;-3.00;99.90;;;;;;8372256;28;20254;-81
2022/12/13 06:43:30;;;;;;;11.27;7.03;;;-3.00;99.90;;;;;;8364700;28;20186;-75
2022/12/13 06:47:31;;;;;;;12.37;6.93;;;-3.10;99.90;;;;;;8363873;28;20250;-76
2022/12/13 06:51:33;;;;;;;9.90;6.93;;;-3.10;99.90;;;;;;8364953;28;20231;-76
2022/12/13 06:55:34;;;;;;;13.70;6.67;;;-3.10;99.90;;;;;;8368352;28;20310;-76
2022/12/13 06:59:35;;;;;;;12.73;6.97;;;-3.10;99.90;;;;;;8371096;28;20317;-79
2022/12/13 07:03:37;;;;;;;13.03;6.83;;;-3.10;99.90;;;;;;8372983;28;20191;-77
2022/12/13 07:07:38;;;;;;;13.47;6.87;;;-3.20;99.90;;;;;;8385150;28;20251;-77
2022/12/13 07:11:38;;;;;;;10.47;6.47;;;-3.20;99.90;;;;;;8374369;28;20219;-81
2022/12/13 07:15:39;;;;;;;12.00;6.87;;;-3.20;99.90;;;;;;8370850;28;20214;-81
2022/12/13 07:19:40;;;;;;;11.07;6.80;;;-3.10;99.90;;;;;;8372851;28;20267;-79
2022/12/13 07:23:41;;;;;;;10.70;6.20;;;-3.10;99.90;;;;;;8373238;28;20201;-79
2022/12/13 07:27:42;;;;;;;14.50;8.10;;;-3.10;99.90;;;;;;8373377;28;20209;-76
2022/12/13 07:31:42;;;;;;;9.80;6.53;;;-3.00;99.90;;;;;;8369379;28;20194;-76
2022/12/13 07:35:44;;;;;;;11.47;6.30;;;-3.00;99.90;;;;;;8369251;28;20228;-77
2022/12/13 07:39:44;;;;;;;12.47;7.40;;;-3.00;99.90;;;;;;8371100;28;20181;-80
2022/12/13 07:43:46;;;;;;;12.17;7.00;;;-3.00;99.90;;;;;;8376520;28;20183;-80
2022/12/13 07:47:47;;;;;;;12.70;6.60;;;-2.90;99.90;;;;;;8377237;28;20208;-79
2022/12/13 07:51:48;;;;;;;12.17;6.57;;;-2.90;99.90;;;;;;8372126;28;20182;-80
2022/12/13 07:55:49;;;;;;;10.43;6.83;;;-2.90;99.90;;;;;;8372566;28;20207;-79
2022/12/13 07:59:50;;;;;;;12.50;7.07;;;-2.90;99.90;;;;;;8364312;28;20207;-80
2022/12/13 08:03:50;;;;;;;13.10;7.10;;;-2.80;99.90;;;;;;8369914;28;20187;-81
2022/12/13 08:07:51;;;;;;;9.73;6.47;;;-2.80;99.90;;;;;;8375237;28;20187;-80
2022/12/13 08:11:52;;;;;;;10.63;6.80;;;-2.60;99.90;;;;;;8372862;28;20186;-76
2022/12/13 08:15:58;;;;;;;11.60;6.17;;;-2.50;99.90;;;;;;8371855;28;20274;-80
2022/12/13 08:19:59;;;;;;;12.03;7.13;;;-2.50;99.90;;;;;;8370829;28;20184;-75
2022/12/13 08:24:00;;;;;;;12.13;7.07;;;-2.40;99.90;;;;;;8369317;28;20243;-76
2022/12/13 08:28:01;;;;;;;10.20;7.00;;;-2.40;99.90;;;;;;8369301;28;20191;-76
2022/12/13 08:32:10;;;;;;;10.20;6.30;;;-2.40;99.90;;;;;;8373738;28;20183;-79
2022/12/13 08:36:14;;;;;;;12.07;6.80;;;-2.30;99.90;;;;;;8368639;28;20214;-79
2022/12/13 08:40:15;;;;;;;11.60;6.43;;;-2.30;99.90;;;;;;8374203;28;20180;-80
2022/12/13 08:44:16;;;;;;;10.97;5.87;;;-2.30;99.90;;;;;;8373432;28;20175;-81
2022/12/13 08:48:17;;;;;;;13.23;6.70;;;-2.20;99.90;;;;;;8369436;28;20183;-79
2022/12/13 08:52:20;;;;;;;10.43;5.53;;;-2.20;99.90;;;;;;8369379;28;20538;-80
2022/12/13 08:56:21;;;;;;;10.67;6.53;;;-2.20;99.90;;;;;;8367508;28;20204;-80
2022/12/13 09:00:22;;;;;;;12.20;6.50;;;-2.20;99.90;;;;;;8366124;28;20183;-77
2022/12/13 09:04:23;;;;;;;10.60;6.30;;;-2.10;99.90;;;;;;8369242;28;20267;-79
2022/12/13 09:08:24;;;;;;;12.70;7.20;;;-2.20;99.90;;;;;;8365849;28;20183;-79
2022/12/13 09:12:25;;;;;;;8.50;5.53;;;-2.10;99.90;;;;;;8374366;28;20191;-80
2022/12/13 09:16:26;;;;;;;12.53;6.63;;;-2.00;99.90;;;;;;8370149;28;20240;-76
2022/12/13 09:20:26;;;;;;;7.93;5.40;;;-1.90;98.30;;;;;;8372110;28;20209;-80
2022/12/13 09:24:27;;;;;;;9.30;5.97;;;-1.80;28.00;;;;;;8372518;28;20185;-80
2022/12/13 09:28:28;;;;;;;10.53;6.27;;;-1.90;1.00;;;;;;8368052;28;20194;-75
2022/12/13 09:32:31;;;;;;;9.20;6.43;;;-1.80;17.10;;;;;;8375118;28;20583;-82
2022/12/13 09:36:31;;;;;;;9.60;5.57;;;-1.70;1.00;;;;;;8370532;28;20213;-80
2022/12/13 09:40:33;;;;;;;10.10;6.53;;;-1.60;1.00;;;;;;8381794;28;20185;-78
2022/12/13 09:44:59;;;;;;;9.10;5.93;;;-1.60;68.60;;;;;;8369752;28;20189;-81
2022/12/13 09:49:02;;;;;;;8.17;5.50;;;-1.70;1.00;;;;;;8370045;28;20181;-78
2022/12/13 09:53:05;;;;;;;7.30;5.50;;;-1.60;99.90;;;;;;8368069;28;20252;-77
2022/12/13 09:57:26;;;;;;;8.80;5.57;;;-1.50;99.90;;;;;;8364088;28;20220;-75
2022/12/13 10:01:27;;;;;;;9.93;5.57;;;-1.40;99.90;;;;;;8368163;28;20174;-81
2022/12/13 10:05:28;;;;;;;6.63;4.30;;;-1.50;99.90;;;;;;8378416;28;20189;-76
2022/12/13 10:09:29;;;;;;;8.23;5.60;;;-1.40;99.90;;;;;;8370380;28;20189;-79
2022/12/13 10:13:40;;;;;;;8.90;5.40;;;-1.30;99.90;;;;;;8364564;28;20271;-80
2022/12/13 10:17:47;;;;;;;8.80;5.40;;;-1.20;99.90;;;;;;8371418;28;20217;-76
2022/12/13 10:21:48;;;;;;;8.03;5.30;;;-1.00;1.00;;;;;;8366449;28;20185;-76
2022/12/13 10:25:53;;;;;;;7.93;4.87;;;-1.10;1.00;;;;;;8368030;28;20181;-79
2022/12/13 10:30:23;;;;;;;8.13;5.13;;;-0.90;1.00;;;;;;8365413;28;20190;-80
2022/12/13 10:34:28;;;;;;;7.43;4.57;;;-0.70;1.00;;;;;;8367176;28;20305;-77
2022/12/13 10:38:33;;;;;;;6.80;4.43;;;-0.80;1.00;;;;;;8364724;28;20224;-77
2022/12/13 10:42:34;;;;;;;8.57;4.97;;;-1.00;1.00;;;;;;8362764;28;20190;-79
2022/12/13 10:46:35;;;;;;;6.57;4.40;;;-0.90;1.00;;;;;;8363005;28;20193;-80
2022/12/13 10:50:36;;;;;;;7.50;5.47;;;-0.80;1.00;;;;;;8367696;28;20189;-75
2022/12/13 10:54:37;;;;;;;8.97;5.23;;;-0.70;1.00;;;;;;8373759;28;20193;-77
2022/12/13 10:58:41;;;;;;;6.60;4.40;;;-0.70;1.00;;;;;;8370761;28;20221;-76
2022/12/13 11:02:53;;;;;;;8.50;4.87;;;-0.70;1.00;;;;;;8364538;28;20271;-75
2022/12/13 11:06:56;;;;;;;6.47;4.53;;;-0.50;1.00;;;;;;8362630;28;20216;-76
2022/12/13 11:11:05;;;;;;;6.83;4.50;;;-0.40;99.90;;;;;;8367996;28;20185;-76
2022/12/13 11:15:14;;;;;;;6.77;4.90;;;-0.50;99.90;;;;;;8380159;28;20221;-80
2022/12/13 11:19:30;;;;;;;8.43;5.27;;;-0.40;99.90;;;;;;8364300;28;20189;-80
2022/12/13 11:23:36;;;;;;;8.30;5.20;;;-0.50;99.90;;;;;;8367026;28;20273;-77
2022/12/13 11:27:43;;;;;;;8.50;5.83;;;-0.70;1.00;;;;;;8368505;28;20198;-77
2022/12/13 11:32:03;;;;;;;8.57;5.43;;;-0.60;1.00;;;;;;8362527;28;20304;-76
2022/12/13 11:36:12;;;;;;;9.67;6.17;;;-0.80;1.00;;;;;;8369499;28;20225;-79
2022/12/13 11:40:25;;;;;;;6.97;4.70;;;-1.00;1.00;;;;;;8365864;28;20177;-76
2022/12/13 11:44:49;;;;;;;6.40;4.77;;;-1.00;1.00;;;;;;8368232;28;20193;-76
2022/12/13 11:48:58;;;;;;;6.73;5.47;;;-0.90;1.00;;;;;;8374787;28;20177;-81
2022/12/13 11:53:17;;;;;;;8.87;5.53;;;-0.80;1.00;;;;;;8372244;28;20186;-81
2022/12/13 11:57:43;;;;;;;8.77;4.90;;;-0.90;1.00;;;;;;8366460;28;20239;-81
2022/12/13 12:02:15;;;;;;;6.17;4.00;;;-0.90;1.00;;;;;;8369666;28;20189;-79
2022/12/13 12:06:21;;;;;;;7.73;3.70;;;-0.80;1.00;;;;;;8366936;28;20197;-79
2022/12/13 12:10:28;;;;;;;5.60;3.70;;;-0.50;99.90;;;;;;8375151;28;20194;-78
2022/12/13 12:14:42;;;;;;;5.37;3.40;;;-0.30;99.90;;;;;;8369576;28;20193;-75
2022/12/13 12:18:43;;;;;;;5.53;3.83;;;-0.30;99.90;;;;;;8367387;28;20350;-81
2022/12/13 12:23:13;;;;;;;6.50;4.47;;;-0.30;99.90;;;;;;8370455;28;20185;-76
2022/12/13 12:27:17;;;;;;;6.87;4.60;;;-0.20;99.90;;;;;;8371304;28;20177;-80
2022/12/13 12:31:36;;;;;;;7.27;5.03;;;-0.20;99.90;;;;;;8375293;28;20284;-75
2022/12/13 12:36:17;;;;;;;5.93;4.43;;;-0.30;99.90;;;;;;8372039;28;20214;-76
2022/12/13 12:40:21;;;;;;;7.67;5.30;;;-0.50;99.90;;;;;;8372935;28;20182;-76
2022/12/13 12:44:49;;;;;;;8.20;5.50;;;-0.40;99.90;;;;;;8369623;28;20181;-78
2022/12/13 12:49:15;;;;;;;10.03;5.60;;;-0.40;99.90;;;;;;8368116;28;20180;-75
2022/12/13 12:53:45;;;;;;;6.50;4.50;;;-0.40;99.90;;;;;;8373319;28;20174;-80
2022/12/13 12:58:00;;;;;;;8.37;5.20;;;-0.40;99.90;;;;;;8366789;28;20548;-80
2022/12/13 13:02:20;;;;;;;8.03;4.83;;;-0.50;99.90;;;;;;8372354;28;20182;-79
2022/12/13 13:06:27;;;;;;;7.47;4.97;;;-0.60;99.90;;;;;;8365659;28;20177;-78
2022/12/13 13:10:29;;;;;;;7.60;4.93;;;-0.70;99.90;;;;;;8381715;28;20186;-79
2022/12/13 13:14:31;;;;;;;7.37;5.10;;;-0.80;99.90;;;;;;8371353;28;20190;-78
2022/12/13 13:18:45;;;;;;;6.53;4.70;;;-1.00;99.90;;;;;;8365176;28;20217;-75
2022/12/13 13:22:46;;;;;;;8.33;4.77;;;-1.30;99.90;;;;;;8372213;28;20189;-79
2022/12/13 13:27:28;;;;;;;8.33;5.10;;;-1.30;99.90;;;;;;8366666;28;20189;-80
2022/12/13 13:31:59;;;;;;;7.03;4.33;;;-1.60;99.90;;;;;;8368921;28;20190;-79
2022/12/13 13:36:00;;;;;;;7.67;4.20;;;-1.60;99.90;;;;;;8364743;28;20212;-78
2022/12/13 13:40:39;;;;;;;8.50;4.33;;;-1.60;99.90;;;;;;8369955;28;20192;-76
2022/12/13 13:44:48;;;;;;;6.57;4.47;;;-1.60;99.90;;;;;;8367777;28;20190;-78
2022/12/13 13:49:06;;;;;;;7.10;4.70;;;-1.60;99.90;;;;;;8368562;28;20178;-75
2022/12/13 13:53:16;;;;;;;8.60;5.00;;;-1.60;99.90;;;;;;8379348;28;20182;-82
2022/12/13 13:57:53;;;;;;;7.27;4.97;;;-1.60;99.90;;;;;;8360261;28;20322;-80
2022/12/13 14:02:25;;;;;;;7.67;4.83;;;-1.70;99.90;;;;;;8372728;28;20212;-77
2022/12/13 14:06:52;;;;;;;8.23;4.83;;;-1.70;99.90;;;;;;8371444;28;20192;-79
2022/12/13 14:11:11;;;;;;;5.63;4.10;;;-1.70;99.90;;;;;;8348913;28;20193;-77
2022/12/13 14:15:21;;;;;;;8.37;5.30;;;-1.70;99.90;;;;;;8367022;28;20197;-78
2022/12/13 14:19:31;;;;;;;6.10;3.93;;;-1.80;99.90;;;;;;8369211;28;20191;-82
2022/12/13 14:23:44;;;;;;;7.90;5.00;;;-1.90;99.90;;;;;;8367614;28;20190;-79
2022/12/13 14:27:48;;;;;;;8.80;4.90;;;-2.00;99.90;;;;;;8371373;28;20276;-74
2022/12/13 14:31:49;;;;;;;7.47;4.97;;;-2.10;99.90;;;;;;8371830;28;20278;-79
2022/12/13 14:35:52;;;;;;;7.83;5.97;;;-2.10;99.90;;;;;;8371921;28;20230;-80
2022/12/13 14:39:53;;;;;;;7.97;5.43;;;-2.10;99.90;;;;;;8370559;28;20203;-81
2022/12/13 14:43:54;;;;;;;8.37;5.83;;;-2.20;99.90;;;;;;8368174;28;20276;-75
2022/12/13 14:47:58;;;;;;;6.77;4.80;;;-2.20;99.90;;;;;;8365491;28;20303;-81
2022/12/13 14:52:03;;;;;;;7.87;4.63;;;-2.20;99.90;;;;;;8380284;28;20188;-76
2022/12/13 14:56:07;;;;;;;8.10;5.13;;;-2.20;99.90;;;;;;8369716;28;20213;-75
2022/12/13 15:00:34;;;;;;;5.53;4.30;;;-2.30;99.90;;;;;;8366742;28;20203;-80
2022/12/13 15:04:36;;;;;;;6.37;4.80;;;-2.30;99.90;;;;;;8359046;28;20278;-80
2022/12/13 15:08:37;;;;;;;6.40;5.43;;;-2.40;99.90;;;;;;8362816;28;20188;-75
2022/12/13 15:12:41;;;;;;;6.50;4.80;;;-2.50;99.90;;;;;;8364368;28;20352;-75
2022/12/13 15:16:48;;;;;;;7.80;5.40;;;-2.50;99.90;;;;;;8384312;28;20207;-78
2022/12/13 15:20:51;;;;;;;7.73;5.60;;;-2.50;99.90;;;;;;8370197;28;20183;-78
2022/12/13 15:24:52;;;;;;;6.83;4.83;;;-2.60;99.90;;;;;;8365326;28;20265;-76
2022/12/13 15:29:03;;;;;;;8.23;4.40;;;-2.60;99.90;;;;;;8374964;28;20279;-79
2022/12/13 15:33:18;;;;;;;7.97;5.03;;;-2.60;1.00;;;;;;8373796;28;20192;-79
2022/12/13 15:37:32;;;;;;;6.10;5.07;;;-2.70;1.00;;;;;;8370422;28;20271;-75
2022/12/13 15:41:41;;;;;;;7.70;5.60;;;-2.70;1.00;;;;;;8368011;28;20215;-78
2022/12/13 15:45:47;;;;;;;9.30;5.37;;;-2.70;1.00;;;;;;8368988;28;20217;-77
2022/12/13 15:49:54;;;;;;;8.90;5.17;;;-2.80;1.00;;;;;;8364515;28;20187;-79
2022/12/13 15:54:17;;;;;;;8.23;5.47;;;-2.80;1.00;;;;;;8375418;28;20204;-78
2022/12/13 15:58:34;;;;;;;7.60;5.27;;;-2.70;1.00;;;;;;8364473;28;20237;-76
2022/12/13 16:02:36;;;;;;;7.13;5.23;;;-2.80;1.00;;;;;;8368109;28;20217;-78
2022/12/13 16:06:36;;;;;;;8.70;5.63;;;-2.80;1.00;;;;;;8366166;28;20220;-79
2022/12/13 16:10:37;;;;;;;7.50;4.97;;;-2.80;1.00;;;;;;8368556;28;20402;-76
2022/12/13 16:14:45;;;;;;;8.03;5.47;;;-2.80;1.00;;;;;;8367188;28;20186;-76
2022/12/13 16:18:53;;;;;;;8.57;5.57;;;-2.80;1.00;;;;;;8378164;28;20357;-76
2022/12/13 16:22:54;;;;;;;9.00;5.60;;;-2.90;1.00;;;;;;8377319;28;20495;-80
2022/12/13 16:26:55;;;;;;;10.30;5.90;;;-2.90;1.00;;;;;;8372494;28;20228;-77
2022/12/13 16:31:20;;;;;;;8.73;5.67;;;-2.90;1.00;;;;;;8389066;28;20218;-78
2022/12/13 16:35:22;;;;;;;8.63;5.93;;;-2.90;1.00;;;;;;8389955;28;20208;-79
2022/12/13 16:39:23;;;;;;;10.13;6.17;;;-2.80;1.00;;;;;;8366252;28;20213;-80
2022/12/13 16:43:27;;;;;;;10.10;6.90;;;-2.80;1.00;;;;;;8372481;28;20291;-80
2022/12/13 16:47:29;;;;;;;10.13;6.80;;;-2.80;1.00;;;;;;8372104;28;20215;-77
2022/12/13 16:51:30;;;;;;;10.13;7.10;;;-2.80;1.00;;;;;;8369687;28;20213;-80
2022/12/13 16:55:31;;;;;;;10.63;5.90;;;-2.80;1.00;;;;;;8372503;28;20294;-77
2022/12/13 16:59:32;;;;;;;10.60;5.97;;;-2.80;1.00;;;;;;8369190;28;20242;-81
2022/12/13 17:03:33;;;;;;;12.37;7.40;;;-2.80;1.00;;;;;;8368438;28;20192;-79
2022/12/13 17:07:34;;;;;;;11.63;6.47;;;-2.90;1.00;;;;;;8370411;28;20195;-77
2022/12/13 17:11:36;;;;;;;11.73;6.47;;;-2.90;1.00;;;;;;8367672;28;20191;-80
2022/12/13 17:15:37;;;;;;;12.73;8.10;;;-2.80;1.00;;;;;;8368869;28;20271;-80
2022/12/13 17:19:38;;;;;;;12.43;7.40;;;-2.90;18.00;;;;;;8368521;28;20180;-76
2022/12/13 17:23:39;;;;;;;12.87;7.17;;;-2.90;38.10;;;;;;8371005;28;20186;-81
2022/12/13 17:27:40;;;;;;;16.67;8.53;;;-2.90;61.30;;;;;;8371715;28;20209;-75
2022/12/13 17:31:41;;;;;;;14.57;8.73;;;-2.90;82.20;;;;;;8369146;28;20197;-78
2022/12/13 17:35:42;;;;;;;13.43;8.40;;;-2.90;94.10;;;;;;8377001;28;20237;-76
2022/12/13 17:39:43;;;;;;;14.00;8.87;;;-2.90;97.60;;;;;;8369796;28;20254;-77
2022/12/13 17:43:44;;;;;;;14.97;9.00;;;-3.00;99.90;;;;;;8365822;28;20206;-78
2022/12/13 17:47:45;;;;;;;19.50;9.77;;;-3.00;99.90;;;;;;8371743;28;20273;-79
2022/12/13 17:51:46;;;;;;;17.90;10.93;;;-2.90;99.90;;;;;;8371599;28;20181;-81
2022/12/13 17:56:00;;;;;;;19.80;11.17;;;-3.00;99.90;;;;;;8369561;28;20225;-81
2022/12/13 18:00:03;;;;;;;34.80;18.57;;;-3.00;99.90;;;;;;8368998;28;20210;-77
2022/12/13 18:04:04;;;;;;;39.93;20.97;;;-3.00;99.90;;;;;;8371143;28;20498;-77
2022/12/13 18:08:05;;;;;;;27.37;15.77;;;-3.00;99.90;;;;;;8365820;28;20184;-77
2022/12/13 18:12:07;;;;;;;27.50;13.63;;;-3.00;99.90;;;;;;8371471;28;20177;-76
2022/12/13 18:16:10;;;;;;;21.70;11.97;;;-3.00;99.90;;;;;;8368447;28;20205;-80
2022/12/13 18:20:11;;;;;;;17.47;10.67;;;-3.00;99.90;;;;;;8374053;28;20183;-81
2022/12/13 18:24:12;;;;;;;17.93;11.20;;;-3.00;99.90;;;;;;8361024;28;20278;-76
2022/12/13 18:28:13;;;;;;;19.17;10.63;;;-3.00;99.90;;;;;;8365689;28;20192;-78
2022/12/13 18:32:13;;;;;;;17.63;10.07;;;-3.00;99.90;;;;;;8364645;28;20196;-81
2022/12/13 18:36:15;;;;;;;20.77;11.17;;;-3.00;99.90;;;;;;8364278;28;20222;-76
2022/12/13 18:40:17;;;;;;;30.13;12.80;;;-3.10;99.90;;;;;;8368743;28;20209;-81
2022/12/13 18:44:18;;;;;;;90.63;29.77;;;-3.10;99.90;;;;;;8365020;28;20207;-76
2022/12/13 18:48:19;;;;;;;331.37;101.43;;;-3.10;99.90;;;;;;8367339;28;20303;-79
2022/12/13 18:52:22;;;;;;;246.37;77.30;;;-3.10;99.90;;;;;;8376075;28;20185;-77
2022/12/13 18:56:23;;;;;;;169.83;54.00;;;-3.10;99.90;;;;;;8389635;28;20292;-76
2022/12/13 19:00:25;;;;;;;104.77;38.30;;;-3.20;99.90;;;;;;8379955;28;20190;-81
2022/12/13 19:04:26;;;;;;;83.03;30.27;;;-3.20;99.90;;;;;;8374127;28;20179;-79
2022/12/13 19:08:27;;;;;;;65.37;26.20;;;-3.20;99.90;;;;;;8382141;28;20181;-80
2022/12/13 19:12:29;;;;;;;40.93;18.17;;;-3.20;99.90;;;;;;8371058;28;20182;-77
2022/12/13 19:16:30;;;;;;;28.00;13.33;;;-3.20;99.90;;;;;;8373196;28;20198;-79
2022/12/13 19:20:31;;;;;;;26.20;11.37;;;-3.20;99.90;;;;;;8370925;28;20190;-79
2022/12/13 19:24:32;;;;;;;41.73;17.00;;;-3.30;99.90;;;;;;8366908;28;20186;-81
2022/12/13 19:28:34;;;;;;;37.43;15.40;;;-3.30;99.90;;;;;;8370377;28;20186;-80
2022/12/13 19:32:34;;;;;;;24.33;12.17;;;-3.30;99.90;;;;;;8386158;28;20573;-76
2022/12/13 19:36:35;;;;;;;22.20;10.40;;;-3.30;99.90;;;;;;8369143;28;20324;-77
2022/12/13 19:40:41;;;;;;;17.57;9.93;;;-3.30;99.90;;;;;;8372274;28;20181;-78
2022/12/13 19:44:42;;;;;;;17.67;9.50;;;-3.30;99.90;;;;;;8372722;28;20189;-79
2022/12/13 19:48:43;;;;;;;24.80;11.40;;;-3.30;99.90;;;;;;8386127;28;21261;-81
2022/12/13 19:52:45;;;;;;;19.73;9.03;;;-3.30;99.90;;;;;;8370703;28;20193;-77
2022/12/13 19:56:46;;;;;;;19.07;10.13;;;-3.40;99.90;;;;;;8379770;28;20213;-78
2022/12/13 20:00:47;;;;;;;23.90;12.30;;;-3.40;99.90;;;;;;8371283;28;20323;-77
2022/12/13 20:04:48;;;;;;;33.53;18.30;;;-3.50;99.90;;;;;;8368019;28;20181;-75
2022/12/13 20:08:50;;;;;;;27.03;13.93;;;-3.50;99.90;;;;;;8371683;28;20161;-80
2022/12/13 20:12:51;;;;;;;24.43;12.13;;;-3.50;99.90;;;;;;8368385;28;20185;-80
2022/12/13 20:16:52;;;;;;;23.60;12.80;;;-3.60;99.90;;;;;;8368555;28;20201;-76
2022/12/13 20:21:04;;;;;;;20.30;11.30;;;-3.70;99.90;;;;;;8378121;28;20173;-80
2022/12/13 20:25:06;;;;;;;20.67;9.77;;;-3.80;99.90;;;;;;8369370;28;20265;-81
2022/12/13 20:29:07;;;;;;;17.83;10.97;;;-4.00;99.90;;;;;;8370137;28;20281;-81
2022/12/13 20:33:08;;;;;;;16.63;9.07;;;-4.10;99.90;;;;;;8370090;28;20217;-78
2022/12/13 20:37:09;;;;;;;19.53;9.07;;;-4.30;99.90;;;;;;8373755;28;20225;-78
2022/12/13 20:41:12;;;;;;;15.43;8.30;;;-4.50;99.90;;;;;;8370910;28;20181;-75
2022/12/13 20:45:13;;;;;;;16.50;8.97;;;-4.80;99.90;;;;;;8369506;28;20180;-76
2022/12/13 20:49:15;;;;;;;17.33;8.10;;;-5.00;99.90;;;;;;8370039;28;20231;-74
2022/12/13 20:53:15;;;;;;;17.87;9.50;;;-5.20;99.90;;;;;;8381724;28;20192;-79
2022/12/13 20:57:16;;;;;;;19.27;9.30;;;-5.40;99.90;;;;;;8367971;28;20237;-76
2022/12/13 21:01:23;;;;;;;14.10;7.47;;;-5.60;99.90;;;;;;8367329;28;20168;-76
2022/12/13 21:05:24;;;;;;;18.47;8.57;;;-5.90;99.90;;;;;;8378204;28;20264;-77
2022/12/13 21:09:25;;;;;;;18.00;9.33;;;-6.10;99.90;;;;;;8374367;28;20184;-80
2022/12/13 21:13:26;;;;;;;17.00;8.10;;;-6.20;1.00;;;;;;8368406;28;20194;-76